sensor_id;sensor_type;location;lat;lon;timestamp;P1;durP1;ratioP1;P2;durP2;ratioP2
7359;SDS011;3720;48.274;7.796;2022-12-18T00:00:39;66.87;;;25.40;;
7359;SDS011;3720;48.274;7.796;2022-12-18T00:03:11;69.97;;;25.00;;
7359;SDS011;3720;48.274;7.796;2022-12-18T00:05:47;70.10;;;25.07;;
7359;SDS011;3720;48.274;7.796;2022-12-18T00:08:20;60.93;;;23.27;;
7359;SDS011;3720;48.274;7.796;2022-12-18T00:10:52;70.40;;;24.50;;
7359;SDS011;3720;48.274;7.796;2022-12-18T00:13:24;66.77;;;24.93;;
7359;SDS011;3720;48.274;7.796;2022-12-18T00:16:00;67.77;;;25.00;;
7359;SDS011;3720;48.274;7.796;2022-12-18T00:18:33;79.27;;;25.77;;
7359;SDS011;3720;48.274;7.796;2022-12-18T00:21:06;66.40;;;24.37;;
7359;SDS011;3720;48.274;7.796;2022-12-18T00:23:42;68.50;;;24.70;;
7359;SDS011;3720;48.274;7.796;2022-12-18T00:26:16;68.90;;;23.97;;
7359;SDS011;3720;48.274;7.796;2022-12-18T00:28:50;70.80;;;25.27;;
7359;SDS011;3720;48.274;7.796;2022-12-18T00:31:23;69.40;;;25.27;;
7359;SDS011;3720;48.274;7.796;2022-12-18T00:33:56;65.03;;;24.07;;
7359;SDS011;3720;48.274;7.796;2022-12-18T00:36:29;63.27;;;23.40;;
7359;SDS011;3720;48.274;7.796;2022-12-18T00:39:04;65.87;;;22.83;;
7359;SDS011;3720;48.274;7.796;2022-12-18T00:41:36;65.80;;;23.87;;
7359;SDS011;3720;48.274;7.796;2022-12-18T00:44:25;64.37;;;23.50;;
7359;SDS011;3720;48.274;7.796;2022-12-18T00:46:57;68.20;;;23.50;;
7359;SDS011;3720;48.274;7.796;2022-12-18T00:49:29;68.33;;;24.53;;
7359;SDS011;3720;48.274;7.796;2022-12-18T00:52:01;61.23;;;22.80;;
7359;SDS011;3720;48.274;7.796;2022-12-18T00:54:34;71.77;;;24.17;;
7359;SDS011;3720;48.274;7.796;2022-12-18T00:57:06;66.73;;;22.87;;
7359;SDS011;3720;48.274;7.796;2022-12-18T00:59:38;69.83;;;23.90;;
7359;SDS011;3720;48.274;7.796;2022-12-18T01:02:10;67.10;;;24.00;;
7359;SDS011;3720;48.274;7.796;2022-12-18T01:04:44;67.17;;;24.87;;
7359;SDS011;3720;48.274;7.796;2022-12-18T01:07:17;67.47;;;25.60;;
7359;SDS011;3720;48.274;7.796;2022-12-18T01:09:50;61.67;;;22.50;;
7359;SDS011;3720;48.274;7.796;2022-12-18T01:12:22;65.00;;;23.67;;
7359;SDS011;3720;48.274;7.796;2022-12-18T01:14:53;63.07;;;22.30;;
7359;SDS011;3720;48.274;7.796;2022-12-18T01:17:25;71.97;;;24.20;;
7359;SDS011;3720;48.274;7.796;2022-12-18T01:19:57;62.77;;;23.13;;
7359;SDS011;3720;48.274;7.796;2022-12-18T01:22:29;64.23;;;22.70;;
7359;SDS011;3720;48.274;7.796;2022-12-18T01:25:06;64.73;;;23.90;;
7359;SDS011;3720;48.274;7.796;2022-12-18T01:27:38;69.90;;;23.93;;
7359;SDS011;3720;48.274;7.796;2022-12-18T01:30:10;68.60;;;24.37;;
7359;SDS011;3720;48.274;7.796;2022-12-18T01:32:43;65.30;;;23.30;;
7359;SDS011;3720;48.274;7.796;2022-12-18T01:35:14;63.53;;;22.97;;
7359;SDS011;3720;48.274;7.796;2022-12-18T01:37:46;72.47;;;24.57;;
7359;SDS011;3720;48.274;7.796;2022-12-18T01:40:20;68.00;;;23.93;;
7359;SDS011;3720;48.274;7.796;2022-12-18T01:42:52;59.17;;;22.33;;
7359;SDS011;3720;48.274;7.796;2022-12-18T01:45:25;66.57;;;22.83;;
7359;SDS011;3720;48.274;7.796;2022-12-18T01:48:00;74.60;;;23.07;;
7359;SDS011;3720;48.274;7.796;2022-12-18T01:50:34;67.37;;;23.10;;
7359;SDS011;3720;48.274;7.796;2022-12-18T01:53:10;62.20;;;21.70;;
7359;SDS011;3720;48.274;7.796;2022-12-18T01:55:49;62.83;;;22.00;;
7359;SDS011;3720;48.274;7.796;2022-12-18T01:58:24;46.92;;;16.85;;
7359;SDS011;3720;48.274;7.796;2022-12-18T02:01:03;64.83;;;23.63;;
7359;SDS011;3720;48.274;7.796;2022-12-18T02:03:35;65.27;;;23.40;;
7359;SDS011;3720;48.274;7.796;2022-12-18T02:06:08;68.43;;;23.57;;
7359;SDS011;3720;48.274;7.796;2022-12-18T02:08:47;66.07;;;22.57;;
7359;SDS011;3720;48.274;7.796;2022-12-18T02:11:32;68.47;;;23.77;;
7359;SDS011;3720;48.274;7.796;2022-12-18T02:14:15;64.67;;;22.43;;
7359;SDS011;3720;48.274;7.796;2022-12-18T02:16:52;73.10;;;22.97;;
7359;SDS011;3720;48.274;7.796;2022-12-18T02:19:37;66.73;;;23.97;;
7359;SDS011;3720;48.274;7.796;2022-12-18T02:22:19;66.07;;;23.60;;
7359;SDS011;3720;48.274;7.796;2022-12-18T02:25:00;64.93;;;22.57;;
7359;SDS011;3720;48.274;7.796;2022-12-18T02:27:45;66.00;;;23.20;;
7359;SDS011;3720;48.274;7.796;2022-12-18T02:30:20;61.43;;;23.03;;
7359;SDS011;3720;48.274;7.796;2022-12-18T02:32:53;67.40;;;23.37;;
7359;SDS011;3720;48.274;7.796;2022-12-18T02:35:27;66.07;;;23.53;;
7359;SDS011;3720;48.274;7.796;2022-12-18T02:38:01;64.10;;;21.93;;
7359;SDS011;3720;48.274;7.796;2022-12-18T02:40:35;70.13;;;24.00;;
7359;SDS011;3720;48.274;7.796;2022-12-18T02:43:11;72.97;;;24.13;;
7359;SDS011;3720;48.274;7.796;2022-12-18T02:45:46;66.32;;;23.48;;
7359;SDS011;3720;48.274;7.796;2022-12-18T02:48:21;69.40;;;22.93;;
7359;SDS011;3720;48.274;7.796;2022-12-18T02:50:57;70.82;;;24.10;;
7359;SDS011;3720;48.274;7.796;2022-12-18T02:53:36;70.43;;;22.70;;
7359;SDS011;3720;48.274;7.796;2022-12-18T02:56:15;68.87;;;23.67;;
7359;SDS011;3720;48.274;7.796;2022-12-18T02:58:55;73.07;;;23.97;;
7359;SDS011;3720;48.274;7.796;2022-12-18T03:01:33;77.73;;;24.20;;
7359;SDS011;3720;48.274;7.796;2022-12-18T03:04:10;67.03;;;23.43;;
7359;SDS011;3720;48.274;7.796;2022-12-18T03:06:48;64.97;;;22.73;;
7359;SDS011;3720;48.274;7.796;2022-12-18T03:09:24;74.40;;;25.20;;
7359;SDS011;3720;48.274;7.796;2022-12-18T03:12:02;63.67;;;22.77;;
7359;SDS011;3720;48.274;7.796;2022-12-18T03:14:59;65.33;;;22.87;;
7359;SDS011;3720;48.274;7.796;2022-12-18T03:17:35;69.57;;;23.93;;
7359;SDS011;3720;48.274;7.796;2022-12-18T03:20:12;65.00;;;23.60;;
7359;SDS011;3720;48.274;7.796;2022-12-18T03:22:49;68.82;;;23.48;;
7359;SDS011;3720;48.274;7.796;2022-12-18T03:25:24;67.32;;;22.73;;
7359;SDS011;3720;48.274;7.796;2022-12-18T03:27:58;66.50;;;23.30;;
7359;SDS011;3720;48.274;7.796;2022-12-18T03:30:34;69.47;;;23.67;;
7359;SDS011;3720;48.274;7.796;2022-12-18T03:33:12;67.77;;;23.83;;
7359;SDS011;3720;48.274;7.796;2022-12-18T03:35:49;66.97;;;23.93;;
7359;SDS011;3720;48.274;7.796;2022-12-18T03:38:22;69.63;;;24.90;;
7359;SDS011;3720;48.274;7.796;2022-12-18T03:40:56;69.20;;;24.13;;
7359;SDS011;3720;48.274;7.796;2022-12-18T03:43:38;65.97;;;22.70;;
7359;SDS011;3720;48.274;7.796;2022-12-18T03:46:23;72.90;;;23.70;;
7359;SDS011;3720;48.274;7.796;2022-12-18T03:48:59;69.30;;;23.50;;
7359;SDS011;3720;48.274;7.796;2022-12-18T03:51:39;60.93;;;21.57;;
7359;SDS011;3720;48.274;7.796;2022-12-18T03:54:16;67.83;;;22.67;;
7359;SDS011;3720;48.274;7.796;2022-12-18T03:56:51;63.20;;;22.43;;
7359;SDS011;3720;48.274;7.796;2022-12-18T03:59:28;65.63;;;22.57;;
7359;SDS011;3720;48.274;7.796;2022-12-18T04:02:03;71.27;;;23.63;;
7359;SDS011;3720;48.274;7.796;2022-12-18T04:04:38;68.25;;;22.38;;
7359;SDS011;3720;48.274;7.796;2022-12-18T04:07:11;67.47;;;22.97;;
7359;SDS011;3720;48.274;7.796;2022-12-18T04:09:46;68.90;;;22.40;;
7359;SDS011;3720;48.274;7.796;2022-12-18T04:12:19;66.37;;;21.73;;
7359;SDS011;3720;48.274;7.796;2022-12-18T04:14:51;66.03;;;23.77;;
7359;SDS011;3720;48.274;7.796;2022-12-18T04:17:25;72.87;;;24.90;;
7359;SDS011;3720;48.274;7.796;2022-12-18T04:19:57;65.80;;;23.00;;
7359;SDS011;3720;48.274;7.796;2022-12-18T04:22:29;63.73;;;22.57;;
7359;SDS011;3720;48.274;7.796;2022-12-18T04:25:00;66.00;;;22.43;;
7359;SDS011;3720;48.274;7.796;2022-12-18T04:27:32;61.47;;;21.87;;
7359;SDS011;3720;48.274;7.796;2022-12-18T04:30:05;67.93;;;23.13;;
7359;SDS011;3720;48.274;7.796;2022-12-18T04:32:39;68.40;;;23.20;;
7359;SDS011;3720;48.274;7.796;2022-12-18T04:35:11;67.07;;;22.33;;
7359;SDS011;3720;48.274;7.796;2022-12-18T04:37:43;68.30;;;22.70;;
7359;SDS011;3720;48.274;7.796;2022-12-18T04:40:15;62.37;;;21.67;;
7359;SDS011;3720;48.274;7.796;2022-12-18T04:42:47;63.90;;;21.77;;
7359;SDS011;3720;48.274;7.796;2022-12-18T04:45:19;60.50;;;21.27;;
7359;SDS011;3720;48.274;7.796;2022-12-18T04:47:53;66.27;;;22.37;;
7359;SDS011;3720;48.274;7.796;2022-12-18T04:50:25;66.17;;;21.37;;
7359;SDS011;3720;48.274;7.796;2022-12-18T04:52:57;65.00;;;21.90;;
7359;SDS011;3720;48.274;7.796;2022-12-18T04:55:29;63.30;;;22.13;;
7359;SDS011;3720;48.274;7.796;2022-12-18T04:58:01;59.63;;;20.37;;
7359;SDS011;3720;48.274;7.796;2022-12-18T05:00:33;59.80;;;20.63;;
7359;SDS011;3720;48.274;7.796;2022-12-18T05:03:06;60.00;;;21.57;;
7359;SDS011;3720;48.274;7.796;2022-12-18T05:05:38;63.90;;;20.57;;
7359;SDS011;3720;48.274;7.796;2022-12-18T05:08:09;58.63;;;21.17;;
7359;SDS011;3720;48.274;7.796;2022-12-18T05:10:41;56.20;;;19.30;;
7359;SDS011;3720;48.274;7.796;2022-12-18T05:13:13;60.27;;;19.50;;
7359;SDS011;3720;48.274;7.796;2022-12-18T05:15:50;55.93;;;19.00;;
7359;SDS011;3720;48.274;7.796;2022-12-18T05:18:24;58.57;;;20.27;;
7359;SDS011;3720;48.274;7.796;2022-12-18T05:20:56;55.67;;;19.03;;
7359;SDS011;3720;48.274;7.796;2022-12-18T05:23:28;51.20;;;18.57;;
7359;SDS011;3720;48.274;7.796;2022-12-18T05:26:02;55.17;;;19.30;;
7359;SDS011;3720;48.274;7.796;2022-12-18T05:28:36;57.20;;;19.50;;
7359;SDS011;3720;48.274;7.796;2022-12-18T05:31:08;54.60;;;19.40;;
7359;SDS011;3720;48.274;7.796;2022-12-18T05:33:41;52.13;;;19.43;;
7359;SDS011;3720;48.274;7.796;2022-12-18T05:36:13;60.60;;;20.47;;
7359;SDS011;3720;48.274;7.796;2022-12-18T05:38:45;58.63;;;20.43;;
7359;SDS011;3720;48.274;7.796;2022-12-18T05:41:17;58.90;;;20.80;;
7359;SDS011;3720;48.274;7.796;2022-12-18T05:43:49;56.20;;;19.30;;
7359;SDS011;3720;48.274;7.796;2022-12-18T05:46:21;56.90;;;19.87;;
7359;SDS011;3720;48.274;7.796;2022-12-18T05:48:54;59.67;;;20.03;;
7359;SDS011;3720;48.274;7.796;2022-12-18T05:51:26;53.50;;;19.40;;
7359;SDS011;3720;48.274;7.796;2022-12-18T05:53:58;60.93;;;20.10;;
7359;SDS011;3720;48.274;7.796;2022-12-18T05:56:30;59.03;;;19.93;;
7359;SDS011;3720;48.274;7.796;2022-12-18T05:59:02;58.77;;;20.77;;
7359;SDS011;3720;48.274;7.796;2022-12-18T06:01:34;55.93;;;19.73;;
7359;SDS011;3720;48.274;7.796;2022-12-18T06:04:07;61.00;;;20.33;;
7359;SDS011;3720;48.274;7.796;2022-12-18T06:06:39;59.87;;;19.90;;
7359;SDS011;3720;48.274;7.796;2022-12-18T06:09:11;57.57;;;20.03;;
7359;SDS011;3720;48.274;7.796;2022-12-18T06:11:43;56.87;;;19.43;;
7359;SDS011;3720;48.274;7.796;2022-12-18T06:14:14;58.27;;;19.57;;
7359;SDS011;3720;48.274;7.796;2022-12-18T06:16:47;59.37;;;20.37;;
7359;SDS011;3720;48.274;7.796;2022-12-18T06:19:23;54.90;;;18.90;;
7359;SDS011;3720;48.274;7.796;2022-12-18T06:21:54;54.33;;;19.17;;
7359;SDS011;3720;48.274;7.796;2022-12-18T06:24:29;53.83;;;18.63;;
7359;SDS011;3720;48.274;7.796;2022-12-18T06:27:01;59.03;;;20.07;;
7359;SDS011;3720;48.274;7.796;2022-12-18T06:29:33;50.40;;;18.73;;
7359;SDS011;3720;48.274;7.796;2022-12-18T06:32:05;55.93;;;19.03;;
7359;SDS011;3720;48.274;7.796;2022-12-18T06:34:38;57.93;;;19.87;;
7359;SDS011;3720;48.274;7.796;2022-12-18T06:37:10;51.87;;;19.30;;
7359;SDS011;3720;48.274;7.796;2022-12-18T06:39:42;53.97;;;18.70;;
7359;SDS011;3720;48.274;7.796;2022-12-18T06:42:14;53.83;;;18.50;;
7359;SDS011;3720;48.274;7.796;2022-12-18T06:44:45;57.60;;;18.93;;
7359;SDS011;3720;48.274;7.796;2022-12-18T06:47:17;50.00;;;18.20;;
7359;SDS011;3720;48.274;7.796;2022-12-18T06:49:50;55.10;;;19.23;;
7359;SDS011;3720;48.274;7.796;2022-12-18T06:52:22;58.93;;;19.80;;
7359;SDS011;3720;48.274;7.796;2022-12-18T06:54:54;48.03;;;18.23;;
7359;SDS011;3720;48.274;7.796;2022-12-18T06:57:26;58.63;;;18.60;;
7359;SDS011;3720;48.274;7.796;2022-12-18T06:59:58;50.83;;;18.27;;
7359;SDS011;3720;48.274;7.796;2022-12-18T07:02:30;53.07;;;18.83;;
7359;SDS011;3720;48.274;7.796;2022-12-18T07:05:05;55.40;;;19.07;;
7359;SDS011;3720;48.274;7.796;2022-12-18T07:07:37;49.20;;;17.63;;
7359;SDS011;3720;48.274;7.796;2022-12-18T07:10:09;55.77;;;18.97;;
7359;SDS011;3720;48.274;7.796;2022-12-18T07:12:42;50.43;;;18.67;;
7359;SDS011;3720;48.274;7.796;2022-12-18T07:15:14;54.70;;;19.50;;
7359;SDS011;3720;48.274;7.796;2022-12-18T07:17:46;55.43;;;19.93;;
7359;SDS011;3720;48.274;7.796;2022-12-18T07:20:19;52.87;;;18.80;;
7359;SDS011;3720;48.274;7.796;2022-12-18T07:22:51;57.33;;;20.47;;
7359;SDS011;3720;48.274;7.796;2022-12-18T07:25:22;58.07;;;20.47;;
7359;SDS011;3720;48.274;7.796;2022-12-18T07:27:54;55.43;;;19.80;;
7359;SDS011;3720;48.274;7.796;2022-12-18T07:30:26;52.57;;;19.13;;
7359;SDS011;3720;48.274;7.796;2022-12-18T07:32:58;51.17;;;19.10;;
7359;SDS011;3720;48.274;7.796;2022-12-18T07:35:31;56.83;;;20.27;;
7359;SDS011;3720;48.274;7.796;2022-12-18T07:40:38;62.73;;;19.90;;
7359;SDS011;3720;48.274;7.796;2022-12-18T07:43:11;62.60;;;20.17;;
7359;SDS011;3720;48.274;7.796;2022-12-18T07:45:43;51.30;;;18.70;;
7359;SDS011;3720;48.274;7.796;2022-12-18T07:48:15;62.87;;;21.10;;
7359;SDS011;3720;48.274;7.796;2022-12-18T07:50:48;59.10;;;19.80;;
7359;SDS011;3720;48.274;7.796;2022-12-18T07:53:20;61.53;;;21.27;;
7359;SDS011;3720;48.274;7.796;2022-12-18T07:55:54;57.20;;;20.77;;
7359;SDS011;3720;48.274;7.796;2022-12-18T07:58:27;55.87;;;19.33;;
7359;SDS011;3720;48.274;7.796;2022-12-18T08:01:03;52.07;;;18.63;;
7359;SDS011;3720;48.274;7.796;2022-12-18T08:03:36;53.05;;;18.20;;
7359;SDS011;3720;48.274;7.796;2022-12-18T08:06:10;51.60;;;18.77;;
7359;SDS011;3720;48.274;7.796;2022-12-18T08:08:42;52.90;;;17.83;;
7359;SDS011;3720;48.274;7.796;2022-12-18T08:11:14;58.03;;;18.47;;
7359;SDS011;3720;48.274;7.796;2022-12-18T08:13:46;58.43;;;18.07;;
7359;SDS011;3720;48.274;7.796;2022-12-18T08:16:18;50.23;;;17.50;;
7359;SDS011;3720;48.274;7.796;2022-12-18T08:18:51;53.67;;;18.00;;
7359;SDS011;3720;48.274;7.796;2022-12-18T08:21:26;45.77;;;15.90;;
7359;SDS011;3720;48.274;7.796;2022-12-18T08:24:00;40.80;;;15.97;;
7359;SDS011;3720;48.274;7.796;2022-12-18T08:26:32;55.40;;;17.77;;
7359;SDS011;3720;48.274;7.796;2022-12-18T08:29:04;47.87;;;17.67;;
7359;SDS011;3720;48.274;7.796;2022-12-18T08:31:36;69.40;;;16.77;;
7359;SDS011;3720;48.274;7.796;2022-12-18T08:34:08;41.20;;;15.67;;
7359;SDS011;3720;48.274;7.796;2022-12-18T08:36:41;65.60;;;17.47;;
7359;SDS011;3720;48.274;7.796;2022-12-18T08:39:13;46.07;;;16.33;;
7359;SDS011;3720;48.274;7.796;2022-12-18T08:41:45;49.43;;;17.67;;
7359;SDS011;3720;48.274;7.796;2022-12-18T08:44:37;46.83;;;16.83;;
7359;SDS011;3720;48.274;7.796;2022-12-18T08:47:08;45.97;;;17.33;;
7359;SDS011;3720;48.274;7.796;2022-12-18T08:49:40;44.63;;;17.77;;
7359;SDS011;3720;48.274;7.796;2022-12-18T08:52:13;46.20;;;17.27;;
7359;SDS011;3720;48.274;7.796;2022-12-18T08:54:45;48.57;;;18.30;;
7359;SDS011;3720;48.274;7.796;2022-12-18T08:57:17;44.23;;;16.87;;
7359;SDS011;3720;48.274;7.796;2022-12-18T08:59:49;42.17;;;16.60;;
7359;SDS011;3720;48.274;7.796;2022-12-18T09:02:21;40.63;;;15.97;;
7359;SDS011;3720;48.274;7.796;2022-12-18T09:04:53;41.67;;;16.10;;
7359;SDS011;3720;48.274;7.796;2022-12-18T09:07:26;34.00;;;14.80;;
7359;SDS011;3720;48.274;7.796;2022-12-18T09:09:58;43.30;;;13.57;;
7359;SDS011;3720;48.274;7.796;2022-12-18T09:12:30;32.07;;;13.50;;
7359;SDS011;3720;48.274;7.796;2022-12-18T09:15:02;30.40;;;13.00;;
7359;SDS011;3720;48.274;7.796;2022-12-18T09:17:34;33.50;;;14.50;;
7359;SDS011;3720;48.274;7.796;2022-12-18T09:20:07;37.23;;;15.30;;
7359;SDS011;3720;48.274;7.796;2022-12-18T09:22:40;38.73;;;16.00;;
7359;SDS011;3720;48.274;7.796;2022-12-18T09:25:13;41.90;;;16.97;;
7359;SDS011;3720;48.274;7.796;2022-12-18T09:27:46;37.33;;;16.10;;
7359;SDS011;3720;48.274;7.796;2022-12-18T09:30:18;43.93;;;16.70;;
7359;SDS011;3720;48.274;7.796;2022-12-18T09:32:50;44.37;;;16.87;;
7359;SDS011;3720;48.274;7.796;2022-12-18T09:35:25;41.87;;;16.07;;
7359;SDS011;3720;48.274;7.796;2022-12-18T09:37:59;41.07;;;16.13;;
7359;SDS011;3720;48.274;7.796;2022-12-18T09:40:32;46.87;;;16.80;;
7359;SDS011;3720;48.274;7.796;2022-12-18T09:43:07;41.72;;;16.48;;
7359;SDS011;3720;48.274;7.796;2022-12-18T09:45:47;38.83;;;16.20;;
7359;SDS011;3720;48.274;7.796;2022-12-18T09:48:25;47.93;;;17.63;;
7359;SDS011;3720;48.274;7.796;2022-12-18T09:51:02;41.27;;;16.77;;
7359;SDS011;3720;48.274;7.796;2022-12-18T09:53:44;49.30;;;18.77;;
7359;SDS011;3720;48.274;7.796;2022-12-18T09:56:22;49.87;;;19.00;;
7359;SDS011;3720;48.274;7.796;2022-12-18T09:58:58;50.77;;;18.87;;
7359;SDS011;3720;48.274;7.796;2022-12-18T10:01:31;51.53;;;19.60;;
7359;SDS011;3720;48.274;7.796;2022-12-18T10:04:05;50.30;;;19.30;;
7359;SDS011;3720;48.274;7.796;2022-12-18T10:06:43;51.30;;;20.42;;
7359;SDS011;3720;48.274;7.796;2022-12-18T10:09:26;60.23;;;22.13;;
7359;SDS011;3720;48.274;7.796;2022-12-18T10:12:05;51.80;;;20.57;;
7359;SDS011;3720;48.274;7.796;2022-12-18T10:14:45;54.17;;;20.77;;
7359;SDS011;3720;48.274;7.796;2022-12-18T10:17:24;55.80;;;21.20;;
7359;SDS011;3720;48.274;7.796;2022-12-18T10:20:09;48.47;;;19.40;;
7359;SDS011;3720;48.274;7.796;2022-12-18T10:22:52;44.57;;;18.47;;
7359;SDS011;3720;48.274;7.796;2022-12-18T10:25:31;46.53;;;18.70;;
7359;SDS011;3720;48.274;7.796;2022-12-18T10:28:11;47.40;;;19.40;;
7359;SDS011;3720;48.274;7.796;2022-12-18T10:30:45;47.67;;;19.27;;
7359;SDS011;3720;48.274;7.796;2022-12-18T10:33:18;43.83;;;18.70;;
7359;SDS011;3720;48.274;7.796;2022-12-18T10:35:51;46.13;;;19.60;;
7359;SDS011;3720;48.274;7.796;2022-12-18T10:38:25;44.67;;;18.80;;
7359;SDS011;3720;48.274;7.796;2022-12-18T10:41:00;43.73;;;19.73;;
7359;SDS011;3720;48.274;7.796;2022-12-18T10:43:34;46.83;;;20.10;;
7359;SDS011;3720;48.274;7.796;2022-12-18T10:46:12;42.47;;;17.57;;
7359;SDS011;3720;48.274;7.796;2022-12-18T10:48:50;46.13;;;18.97;;
7359;SDS011;3720;48.274;7.796;2022-12-18T10:51:25;43.80;;;18.30;;
7359;SDS011;3720;48.274;7.796;2022-12-18T10:53:59;40.90;;;18.00;;
7359;SDS011;3720;48.274;7.796;2022-12-18T10:56:35;47.07;;;18.67;;
7359;SDS011;3720;48.274;7.796;2022-12-18T10:59:09;52.60;;;21.23;;
7359;SDS011;3720;48.274;7.796;2022-12-18T11:01:48;51.38;;;22.05;;
7359;SDS011;3720;48.274;7.796;2022-12-18T11:04:22;52.30;;;22.63;;
7359;SDS011;3720;48.274;7.796;2022-12-18T11:06:57;50.53;;;21.80;;
7359;SDS011;3720;48.274;7.796;2022-12-18T11:09:31;52.40;;;22.80;;
7359;SDS011;3720;48.274;7.796;2022-12-18T11:12:18;60.63;;;25.63;;
7359;SDS011;3720;48.274;7.796;2022-12-18T11:14:51;59.53;;;24.17;;
7359;SDS011;3720;48.274;7.796;2022-12-18T11:17:28;68.18;;;26.40;;
7359;SDS011;3720;48.274;7.796;2022-12-18T11:20:03;59.80;;;25.73;;
7359;SDS011;3720;48.274;7.796;2022-12-18T11:22:39;70.47;;;27.55;;
7359;SDS011;3720;48.274;7.796;2022-12-18T11:25:17;80.13;;;28.60;;
7359;SDS011;3720;48.274;7.796;2022-12-18T11:27:52;69.07;;;27.97;;
7359;SDS011;3720;48.274;7.796;2022-12-18T11:30:27;57.72;;;25.63;;
7359;SDS011;3720;48.274;7.796;2022-12-18T11:33:03;58.10;;;24.13;;
7359;SDS011;3720;48.274;7.796;2022-12-18T11:35:39;60.83;;;25.60;;
7359;SDS011;3720;48.274;7.796;2022-12-18T11:38:18;54.53;;;22.93;;
7359;SDS011;3720;48.274;7.796;2022-12-18T11:40:56;52.20;;;21.47;;
7359;SDS011;3720;48.274;7.796;2022-12-18T11:43:33;48.57;;;20.03;;
7359;SDS011;3720;48.274;7.796;2022-12-18T11:46:10;49.83;;;21.33;;
7359;SDS011;3720;48.274;7.796;2022-12-18T11:48:46;50.63;;;20.63;;
7359;SDS011;3720;48.274;7.796;2022-12-18T11:51:25;53.57;;;22.43;;
7359;SDS011;3720;48.274;7.796;2022-12-18T11:54:01;47.77;;;20.37;;
7359;SDS011;3720;48.274;7.796;2022-12-18T11:56:45;46.27;;;19.93;;
7359;SDS011;3720;48.274;7.796;2022-12-18T11:59:23;44.90;;;20.63;;
7359;SDS011;3720;48.274;7.796;2022-12-18T12:02:11;43.40;;;19.30;;
7359;SDS011;3720;48.274;7.796;2022-12-18T12:05:00;40.90;;;19.57;;
7359;SDS011;3720;48.274;7.796;2022-12-18T12:07:47;49.90;;;24.17;;
7359;SDS011;3720;48.274;7.796;2022-12-18T12:10:30;38.00;;;18.00;;
7359;SDS011;3720;48.274;7.796;2022-12-18T12:13:15;44.33;;;20.63;;
7359;SDS011;3720;48.274;7.796;2022-12-18T12:16:00;47.27;;;21.57;;
7359;SDS011;3720;48.274;7.796;2022-12-18T12:18:43;40.67;;;18.80;;
7359;SDS011;3720;48.274;7.796;2022-12-18T12:21:28;38.83;;;17.57;;
7359;SDS011;3720;48.274;7.796;2022-12-18T12:24:12;42.73;;;20.70;;
7359;SDS011;3720;48.274;7.796;2022-12-18T12:26:57;46.67;;;23.60;;
7359;SDS011;3720;48.274;7.796;2022-12-18T12:29:42;42.10;;;19.63;;
7359;SDS011;3720;48.274;7.796;2022-12-18T12:32:30;45.63;;;20.87;;
7359;SDS011;3720;48.274;7.796;2022-12-18T12:35:19;50.07;;;22.07;;
7359;SDS011;3720;48.274;7.796;2022-12-18T12:38:01;48.37;;;22.77;;
7359;SDS011;3720;48.274;7.796;2022-12-18T12:40:39;47.87;;;23.80;;
7359;SDS011;3720;48.274;7.796;2022-12-18T12:43:22;55.40;;;25.47;;
7359;SDS011;3720;48.274;7.796;2022-12-18T12:45:57;58.67;;;27.30;;
7359;SDS011;3720;48.274;7.796;2022-12-18T12:48:38;55.20;;;25.50;;
7359;SDS011;3720;48.274;7.796;2022-12-18T12:51:16;55.73;;;25.53;;
7359;SDS011;3720;48.274;7.796;2022-12-18T12:53:51;50.80;;;24.38;;
7359;SDS011;3720;48.274;7.796;2022-12-18T12:56:24;50.13;;;24.93;;
7359;SDS011;3720;48.274;7.796;2022-12-18T12:59:04;46.57;;;23.53;;
7359;SDS011;3720;48.274;7.796;2022-12-18T13:01:49;49.90;;;23.33;;
7359;SDS011;3720;48.274;7.796;2022-12-18T13:04:30;46.63;;;22.07;;
7359;SDS011;3720;48.274;7.796;2022-12-18T13:07:09;49.93;;;23.10;;
7359;SDS011;3720;48.274;7.796;2022-12-18T13:12:52;47.53;;;22.27;;
7359;SDS011;3720;48.274;7.796;2022-12-18T13:15:29;46.37;;;21.40;;
7359;SDS011;3720;48.274;7.796;2022-12-18T13:18:13;49.50;;;22.43;;
7359;SDS011;3720;48.274;7.796;2022-12-18T13:20:49;46.80;;;22.03;;
7359;SDS011;3720;48.274;7.796;2022-12-18T13:23:32;50.90;;;23.53;;
7359;SDS011;3720;48.274;7.796;2022-12-18T13:26:30;48.53;;;23.07;;
7359;SDS011;3720;48.274;7.796;2022-12-18T13:29:04;52.67;;;24.53;;
7359;SDS011;3720;48.274;7.796;2022-12-18T13:34:30;53.07;;;24.20;;
7359;SDS011;3720;48.274;7.796;2022-12-18T13:46:26;55.07;;;25.70;;
7359;SDS011;3720;48.274;7.796;2022-12-18T13:49:00;58.90;;;25.20;;
7359;SDS011;3720;48.274;7.796;2022-12-18T13:51:35;55.23;;;25.43;;
7359;SDS011;3720;48.274;7.796;2022-12-18T13:54:13;57.20;;;26.38;;
7359;SDS011;3720;48.274;7.796;2022-12-18T13:56:50;56.27;;;25.33;;
7359;SDS011;3720;48.274;7.796;2022-12-18T13:59:24;54.57;;;25.77;;
7359;SDS011;3720;48.274;7.796;2022-12-18T14:01:58;58.10;;;26.30;;
7359;SDS011;3720;48.274;7.796;2022-12-18T14:04:32;59.60;;;25.40;;
7359;SDS011;3720;48.274;7.796;2022-12-18T14:07:06;101.10;;;45.23;;
7359;SDS011;3720;48.274;7.796;2022-12-18T14:09:42;67.45;;;31.05;;
7359;SDS011;3720;48.274;7.796;2022-12-18T14:12:17;63.40;;;27.33;;
7359;SDS011;3720;48.274;7.796;2022-12-18T14:17:50;69.60;;;30.80;;
7359;SDS011;3720;48.274;7.796;2022-12-18T14:20:25;63.20;;;27.10;;
7359;SDS011;3720;48.274;7.796;2022-12-18T14:22:59;66.17;;;29.33;;
7359;SDS011;3720;48.274;7.796;2022-12-18T14:25:31;56.97;;;25.63;;
7359;SDS011;3720;48.274;7.796;2022-12-18T14:28:08;53.10;;;23.77;;
7359;SDS011;3720;48.274;7.796;2022-12-18T14:30:45;59.70;;;26.07;;
7359;SDS011;3720;48.274;7.796;2022-12-18T14:33:18;58.73;;;26.10;;
7359;SDS011;3720;48.274;7.796;2022-12-18T14:35:53;57.63;;;26.37;;
7359;SDS011;3720;48.274;7.796;2022-12-18T14:38:28;55.37;;;25.63;;
7359;SDS011;3720;48.274;7.796;2022-12-18T14:41:02;71.73;;;30.43;;
7359;SDS011;3720;48.274;7.796;2022-12-18T14:43:36;65.93;;;29.30;;
7359;SDS011;3720;48.274;7.796;2022-12-18T14:49:17;72.13;;;31.67;;
7359;SDS011;3720;48.274;7.796;2022-12-18T14:51:52;72.50;;;32.23;;
7359;SDS011;3720;48.274;7.796;2022-12-18T14:54:26;72.57;;;32.13;;
7359;SDS011;3720;48.274;7.796;2022-12-18T14:57:01;71.97;;;32.90;;
7359;SDS011;3720;48.274;7.796;2022-12-18T14:59:36;72.60;;;32.67;;
7359;SDS011;3720;48.274;7.796;2022-12-18T15:02:10;80.33;;;34.47;;
7359;SDS011;3720;48.274;7.796;2022-12-18T15:05:00;81.90;;;36.90;;
7359;SDS011;3720;48.274;7.796;2022-12-18T15:07:39;78.97;;;34.47;;
7359;SDS011;3720;48.274;7.796;2022-12-18T15:10:14;81.00;;;34.23;;
7359;SDS011;3720;48.274;7.796;2022-12-18T15:12:47;78.13;;;32.97;;
7359;SDS011;3720;48.274;7.796;2022-12-18T15:18:20;87.23;;;35.63;;
7359;SDS011;3720;48.274;7.796;2022-12-18T15:20:59;91.30;;;36.27;;
7359;SDS011;3720;48.274;7.796;2022-12-18T15:23:45;86.33;;;34.90;;
7359;SDS011;3720;48.274;7.796;2022-12-18T15:26:18;87.20;;;34.97;;
7359;SDS011;3720;48.274;7.796;2022-12-18T15:28:53;78.63;;;33.73;;
7359;SDS011;3720;48.274;7.796;2022-12-18T15:31:28;88.73;;;36.00;;
7359;SDS011;3720;48.274;7.796;2022-12-18T15:34:12;86.78;;;35.40;;
7359;SDS011;3720;48.274;7.796;2022-12-18T15:36:46;86.03;;;34.73;;
7359;SDS011;3720;48.274;7.796;2022-12-18T15:39:18;83.73;;;33.37;;
7359;SDS011;3720;48.274;7.796;2022-12-18T15:41:50;80.70;;;33.70;;
7359;SDS011;3720;48.274;7.796;2022-12-18T15:44:39;83.13;;;32.67;;
7359;SDS011;3720;48.274;7.796;2022-12-18T15:47:12;80.43;;;32.77;;
7359;SDS011;3720;48.274;7.796;2022-12-18T15:49:44;80.53;;;33.40;;
7359;SDS011;3720;48.274;7.796;2022-12-18T15:52:17;77.67;;;32.07;;
7359;SDS011;3720;48.274;7.796;2022-12-18T15:54:55;83.37;;;33.90;;
7359;SDS011;3720;48.274;7.796;2022-12-18T15:57:59;84.70;;;33.90;;
7359;SDS011;3720;48.274;7.796;2022-12-18T16:00:31;85.47;;;34.33;;
7359;SDS011;3720;48.274;7.796;2022-12-18T16:03:05;78.13;;;32.37;;